Ride Results

Faraway EEC Sunday (24-04-2011)
Ride distance: 80.0 km

Outcomes - Faraway EEC Sunday (24-04-2011)
Division No. of Entries Retired / DNE Completed Withdrawn Ineligible V/O Percentage Completed
HW 8 - 6 - - 2 75.00%
MW 18 - 14 1 2 1 77.78%
LW 14 - 11 1 1 1 78.57%
JN 9 - 8 - - 1 88.89%
Totals 49 - 39 2 3 5 79.59%
Results - Faraway EEC Sunday (24-04-2011)
No. Rider Horse Place Time Leg Speeds Total
Km/Hr
H/R bpm
Heavyweight
187 Paul Lengronne Kai Hai Sterling Aaramis 1 (BC) 5:59:00 13.9, 12.8 13.37 33, 46, 55 (Avg:50)
188 Michael Shaw Bellabin 2 7:00:00 11.2, 11.5 11.43 36, 49, 58 (Avg:53)
171 Shimpei Miyamoto Aloha Blue Opal 3 7:48:00 10.1, 10.3 10.26 31, 38, 41 (Avg:39)
157 Craig Bond Rodborough Renegade 4 8:06:00 10.0, 9.6 9.88 46, 44, 47 (Avg:45)
158 Gary Surch Magic Minstral 5 8:31:00 10.0, 8.8 9.39 29, 38, 51 (Avg:44)
168 Jaime Mansbridge Lea Ma Park La Gold 6 8:32:00 10.3, 8.5 9.38 38, 44, 56 (Avg:50)
155 Dan Winkel Shardell Azeem Heart Rate L2 0:00:00 13.3, 12.2 - 38, 45, 71 (Avg:58)
173 Peter Spottswood Glenewan Dusk Metabolics severe L1 0:00:00 10.1 - 38, 49 (Avg:49)
Middleweight
179 Simone Krahnen Ardai 1 5:15:00 15.5, 14.9 15.24 40, 45, 51 (Avg:48)
142 Matt Sample Tarrangower Crecendo 1 5:15:00 15.5, 14.9 15.24 33, 42, 60 (Avg:51)
154 Sarah Love Fun 4 Us 3 6:21:00 12.4, 12.6 12.60 38, 48, 51 (Avg:49)
149 Gayle Holmes Donnatoldus 4 6:27:00 12.3, 12.4 12.40 41, 51, 47 (Avg:49)
143 Kellie Hart Noname 5 7:06:00 11.7, 10.8 11.27 38, 48, 51 (Avg:49)
180 Chelsea Moore Mt Eerwah Silver Selene 6 7:23:00 11.9, 9.9 10.84 37, 46, 56 (Avg:51)
184 Kristy Brundell Woomera Thor 7 7:33:00 10.4, 10.7 10.60 36, 40, 45 (Avg:42)
152 Donna Pearce Windhaven Hussein 7 7:33:00 10.3, 10.8 10.60 35, 46, 52 (Avg:49)
177 Kelsey Irvine Kelkette Park France 9 7:48:00 10.1, 10.3 10.26 33, 42, 46 (Avg:44)
161 Kurt Lord Dodge 10 7:51:00 10.0, 10.3 10.19 34, 43, 43 (Avg:43)
172 Tim Baumann Bacchante Vengence 11 8:08:00 9.7, 9.9 9.84 39, 47, 51 (Avg:49)
174 Vanessa Burton Heathfield's Khalisa 12 8:20:00 10.0, 9.1 9.60 38, 42, 43 (Avg:42)
165 Angela Head La-Battist Saxon 13 8:27:00 9.9, 9.0 9.47 38, 45, 48 (Avg:46)
169 Cathie Bruce Tyto Ivan 14 8:32:00 10.3, 8.5 9.38 34, 40, 58 (Avg:49)
150 Pierre DeWit Gangster Te Heart Rate L2 0:00:00 12.3, 12.4 - 48, 52, 67 (Avg:59)
145 Fiona Fenech Jum Jum Little Zippa Under Novice Time L2 (BC) 0:00:00 13.3, 13.4 - 36, 43, 52 (Avg:47)
144 Nick Riley Bellarine Passiona Under Novice Time L2 0:00:00 13.3, 13.4 - 36, 50, 56 (Avg:53)
160 Stephen Gray Gydanska Withdrawn L1 0:00:00 - - 37, 38 (Avg:38)
Lightweight
182 Carla Jones Mt Eerwah Nikita 1 5:38:00 14.9, 13.5 14.20 29, 40, 48 (Avg:44)
141 Jess Langridge Ceona Citation 2 6:27:00 12.4, 12.3 12.40 35, 51, 47 (Avg:49)
183 Sally Genninges Centreline Envy 3 6:34:00 13.3, 11.2 12.18 42, 50, 54 (Avg:52)
151 Robin Young Melawondi 4 7:00:00 12.1, 10.8 11.43 37, 40, 57 (Avg:48)
166 Shelley Chapman Monarch Park Jewel In The Crown 5 7:20:00 11.0, 10.7 10.91 33, 38, 41 (Avg:39)
181 Sean Crew Mt Eerwah Bay Cavalier 6 7:23:00 11.9, 9.9 10.84 27, 48, 48 (Avg:48)
170 Sue Sutcliffe Haftado Double Identity 7 7:30:00 11.7, 9.7 10.67 34, 43, 43 (Avg:43)
190 Ruth White Alamo Minelli 8 7:37:00 10.0, 11.0 10.50 37, 40, 52 (Avg:46)
178 Jess Capek Shardell Desert Magic 9 8:07:00 9.7, 9.9 9.86 34, 39, 46 (Avg:42)
175 Sasha Laws-King Heathfield's Sheisha 10 8:20:00 10.0, 9.1 9.60 29, 35, 37 (Avg:36)
159 Jess Ashman Dunbar Aramis 11 8:31:00 10.0, 8.8 9.39 35, 40, 40 (Avg:40)
156 Lisa Stoffel Hill Stone Halimah Heart Rate L2 0:00:00 10.0, 8.6 - 36, 55, 63 (Avg:59)
146 Teresa Vermeer Bellarine Amigo Under Novice Time L2 (BC) 0:00:00 13.3, 13.4 - 32, 41, 46 (Avg:43)
189 Amanda Powell Glanheathyn Tara II Withdrawn P/R 0:00:00 - - 29
Junior
153 Lainie Zischke Sundust Soloman 1 (BC) 5:03:00 15.7, 15.8 15.84 38, 47, 53 (Avg:50)
186 Cindy Williams Kirrong Khalaan 2 7:00:00 10.3, 12.6 11.43 39, 40, 44 (Avg:42)
164 Shania Chapman Sahala Astronomer 3 7:20:00 11.0, 10.7 10.91 32, 47, 50 (Avg:48)
167 Timothy Sutcliffe My Cadet 4 7:30:00 11.7, 9.7 10.67 38, 48, 53 (Avg:50)
185 Rilene Heydenreich Jezabelle Oceans Of Fire 5 7:33:00 10.4, 10.7 10.60 39, 43, 57 (Avg:50)
176 Tyla Barton Brookleigh Bravo 6 7:47:00 10.1, 10.3 10.28 33, 38, 53 (Avg:45)
162 Emily Brandenburg Shadow 7 7:51:00 10.0, 10.3 10.19 38, 42, 47 (Avg:44)
163 Renae Chapman Bellarine Frodo 8 8:27:00 9.9, 9.0 9.47 31, 41, 39 (Avg:40)
148 David Anderson Jnr Picnic Park Dakar Lame L1 0:00:00 13.2 - 35, 42 (Avg:42)